This is the latest recevied weather packets stored in our database for station/object DOUGLAS. If no packets are shown the sender has not sent any weather packets the latest 10 day(s).
| Time | Temp. | Humidity | Pressure | Rain* | Wind** | Luminosity | Snow |
|---|---|---|---|---|---|---|---|
| 1777608004 | 10° C | - | - | - | - | - | - |
| 1777607403 | 10° C | - | - | - | - | - | - |
| 1777606803 | 10° C | - | - | - | - | - | - |
| 1777606203 | 10.56° C | - | - | - | - | - | - |
| 1777605603 | 11.11° C | 99% | 0 hPa | - | - | - | - |
| 1777605003 | 11.67° C | 97% | 0 hPa | - | - | - | - |
| 1777604404 | 12.22° C | 95% | 0 hPa | - | - | - | - |
| 1777603803 | 12.78° C | 90% | 0 hPa | - | - | - | - |
| 1777603202 | 13.33° C | 84% | 0 hPa | - | - | - | - |
| 1777602603 | 12.78° C | 90% | 0 hPa | - | - | - | - |
| 1777602003 | 12.78° C | 90% | 0 hPa | - | - | - | - |
| 1777601403 | 12.78° C | 90% | 0 hPa | - | - | - | - |
| 1777600804 | 13.33° C | 88% | 0 hPa | - | - | - | - |
| 1777600203 | 13.89° C | 85% | 0 hPa | - | - | - | - |
| 1777599603 | 14.44° C | 81% | 0 hPa | - | - | - | - |
| 1777599003 | 15° C | 79% | 0 hPa | - | - | - | - |
| 1777598403 | 15.56° C | 72% | 0 hPa | - | - | - | - |
| 1777597803 | 16.67° C | 68% | 0 hPa | - | - | - | - |
| 1777597204 | 16.11° C | 68% | 0 hPa | - | - | - | - |
| 1777596603 | 17.22° C | 64% | 0 hPa | - | - | - | - |
| 1777596003 | 17.22° C | 65% | 0 hPa | - | - | - | - |
| 1777595403 | 17.78° C | 61% | 0 hPa | - | - | - | - |
| 1777594802 | 17.78° C | 60% | 0 hPa | - | - | - | - |
| 1777594203 | 18.33° C | 56% | 0 hPa | - | - | - | - |
| 1777593603 | 19.44° C | 52% | 0 hPa | - | - | - | - |
* Rain since midnight (hover to see other rain measurements)
** Current wind speed in m/s (hover to see current wind gust speed)